sensor_id;sensor_type;location;lat;lon;timestamp;P1;durP1;ratioP1;P2;durP2;ratioP2
38787;SDS011;24536;45.488;12.238;2023-03-31T00:02:03;15.43;;;12.95;;
38787;SDS011;24536;45.488;12.238;2023-03-31T00:04:41;15.77;;;12.07;;
38787;SDS011;24536;45.488;12.238;2023-03-31T00:07:16;17.10;;;12.80;;
38787;SDS011;24536;45.488;12.238;2023-03-31T00:09:46;13.82;;;11.45;;
38787;SDS011;24536;45.488;12.238;2023-03-31T00:12:15;16.05;;;12.05;;
38787;SDS011;24536;45.488;12.238;2023-03-31T00:14:41;17.58;;;12.70;;
38787;SDS011;24536;45.488;12.238;2023-03-31T00:17:08;17.30;;;12.02;;
38787;SDS011;24536;45.488;12.238;2023-03-31T00:19:34;18.40;;;13.20;;
38787;SDS011;24536;45.488;12.238;2023-03-31T00:22:01;16.15;;;13.05;;
38787;SDS011;24536;45.488;12.238;2023-03-31T00:24:27;17.52;;;12.32;;
38787;SDS011;24536;45.488;12.238;2023-03-31T00:27:00;17.35;;;13.57;;
38787;SDS011;24536;45.488;12.238;2023-03-31T00:29:26;18.25;;;12.20;;
38787;SDS011;24536;45.488;12.238;2023-03-31T00:31:52;17.63;;;12.65;;
38787;SDS011;24536;45.488;12.238;2023-03-31T00:34:19;16.67;;;13.25;;
38787;SDS011;24536;45.488;12.238;2023-03-31T00:36:45;17.60;;;13.10;;
38787;SDS011;24536;45.488;12.238;2023-03-31T00:39:14;21.58;;;13.80;;
38787;SDS011;24536;45.488;12.238;2023-03-31T00:41:42;14.48;;;12.32;;
38787;SDS011;24536;45.488;12.238;2023-03-31T00:44:16;19.77;;;12.23;;
38787;SDS011;24536;45.488;12.238;2023-03-31T00:47:03;16.20;;;12.05;;
38787;SDS011;24536;45.488;12.238;2023-03-31T00:49:40;16.33;;;11.20;;
38787;SDS011;24536;45.488;12.238;2023-03-31T00:54:50;15.80;;;12.10;;
38787;SDS011;24536;45.488;12.238;2023-03-31T00:57:21;14.75;;;11.48;;
38787;SDS011;24536;45.488;12.238;2023-03-31T00:59:50;16.15;;;10.93;;
38787;SDS011;24536;45.488;12.238;2023-03-31T01:02:20;15.85;;;11.90;;
38787;SDS011;24536;45.488;12.238;2023-03-31T01:04:50;14.20;;;11.88;;
38787;SDS011;24536;45.488;12.238;2023-03-31T01:07:21;14.40;;;11.07;;
38787;SDS011;24536;45.488;12.238;2023-03-31T01:09:50;16.33;;;12.30;;
38787;SDS011;24536;45.488;12.238;2023-03-31T01:12:21;16.27;;;12.32;;
38787;SDS011;24536;45.488;12.238;2023-03-31T01:14:48;13.70;;;11.45;;
38787;SDS011;24536;45.488;12.238;2023-03-31T01:17:15;15.55;;;12.00;;
38787;SDS011;24536;45.488;12.238;2023-03-31T01:22:34;17.17;;;12.00;;
38787;SDS011;24536;45.488;12.238;2023-03-31T01:35:57;15.00;;;12.15;;
38787;SDS011;24536;45.488;12.238;2023-03-31T01:41:48;19.70;;;13.75;;
38787;SDS011;24536;45.488;12.238;2023-03-31T01:47:13;16.52;;;11.85;;
38787;SDS011;24536;45.488;12.238;2023-03-31T01:57:40;14.25;;;11.80;;
38787;SDS011;24536;45.488;12.238;2023-03-31T02:00:17;15.48;;;12.40;;
38787;SDS011;24536;45.488;12.238;2023-03-31T02:03:04;15.63;;;12.73;;
38787;SDS011;24536;45.488;12.238;2023-03-31T02:05:43;14.95;;;12.20;;
38787;SDS011;24536;45.488;12.238;2023-03-31T02:11:12;19.98;;;12.25;;
38787;SDS011;24536;45.488;12.238;2023-03-31T02:13:38;17.33;;;12.52;;
38787;SDS011;24536;45.488;12.238;2023-03-31T02:16:09;15.38;;;12.60;;
38787;SDS011;24536;45.488;12.238;2023-03-31T02:18:43;17.83;;;13.25;;
38787;SDS011;24536;45.488;12.238;2023-03-31T02:21:12;16.63;;;12.17;;
38787;SDS011;24536;45.488;12.238;2023-03-31T02:23:40;18.15;;;11.65;;
38787;SDS011;24536;45.488;12.238;2023-03-31T02:28:36;17.27;;;13.07;;
38787;SDS011;24536;45.488;12.238;2023-03-31T02:31:12;14.45;;;12.15;;
38787;SDS011;24536;45.488;12.238;2023-03-31T02:33:48;17.17;;;11.82;;
38787;SDS011;24536;45.488;12.238;2023-03-31T02:36:14;18.08;;;12.23;;
38787;SDS011;24536;45.488;12.238;2023-03-31T02:38:42;17.15;;;12.43;;
38787;SDS011;24536;45.488;12.238;2023-03-31T02:41:16;17.27;;;13.02;;
38787;SDS011;24536;45.488;12.238;2023-03-31T02:43:41;16.90;;;12.93;;
38787;SDS011;24536;45.488;12.238;2023-03-31T02:46:07;13.85;;;12.00;;
38787;SDS011;24536;45.488;12.238;2023-03-31T02:48:37;16.23;;;12.82;;
38787;SDS011;24536;45.488;12.238;2023-03-31T03:01:40;16.30;;;11.30;;
38787;SDS011;24536;45.488;12.238;2023-03-31T03:06:58;16.88;;;12.55;;
38787;SDS011;24536;45.488;12.238;2023-03-31T03:12:29;17.20;;;12.02;;
38787;SDS011;24536;45.488;12.238;2023-03-31T03:18:13;14.43;;;11.70;;
38787;SDS011;24536;45.488;12.238;2023-03-31T03:20:43;17.95;;;12.57;;
38787;SDS011;24536;45.488;12.238;2023-03-31T03:23:13;16.50;;;12.60;;
38787;SDS011;24536;45.488;12.238;2023-03-31T03:25:40;17.90;;;12.48;;
38787;SDS011;24536;45.488;12.238;2023-03-31T03:28:06;18.20;;;13.07;;
38787;SDS011;24536;45.488;12.238;2023-03-31T03:30:32;22.20;;;13.93;;
38787;SDS011;24536;45.488;12.238;2023-03-31T03:32:57;17.40;;;12.68;;
38787;SDS011;24536;45.488;12.238;2023-03-31T03:35:23;15.90;;;11.93;;
38787;SDS011;24536;45.488;12.238;2023-03-31T03:37:49;13.73;;;11.40;;
38787;SDS011;24536;45.488;12.238;2023-03-31T03:40:15;18.90;;;12.63;;
38787;SDS011;24536;45.488;12.238;2023-03-31T03:42:41;14.70;;;11.73;;
38787;SDS011;24536;45.488;12.238;2023-03-31T03:45:07;15.05;;;12.35;;
38787;SDS011;24536;45.488;12.238;2023-03-31T03:47:33;15.75;;;13.15;;
38787;SDS011;24536;45.488;12.238;2023-03-31T03:50:00;13.93;;;11.77;;
38787;SDS011;24536;45.488;12.238;2023-03-31T03:52:26;17.88;;;13.05;;
38787;SDS011;24536;45.488;12.238;2023-03-31T03:54:52;14.95;;;12.02;;
38787;SDS011;24536;45.488;12.238;2023-03-31T03:57:17;16.77;;;13.18;;
38787;SDS011;24536;45.488;12.238;2023-03-31T03:59:43;14.90;;;11.90;;
38787;SDS011;24536;45.488;12.238;2023-03-31T04:02:09;16.23;;;13.07;;
38787;SDS011;24536;45.488;12.238;2023-03-31T04:04:35;16.17;;;13.27;;
38787;SDS011;24536;45.488;12.238;2023-03-31T04:07:01;15.07;;;11.82;;
38787;SDS011;24536;45.488;12.238;2023-03-31T04:09:26;15.05;;;12.40;;
38787;SDS011;24536;45.488;12.238;2023-03-31T04:11:52;17.33;;;12.98;;
38787;SDS011;24536;45.488;12.238;2023-03-31T04:14:18;20.63;;;12.50;;
38787;SDS011;24536;45.488;12.238;2023-03-31T04:16:44;23.52;;;13.40;;
38787;SDS011;24536;45.488;12.238;2023-03-31T04:19:11;25.77;;;12.73;;
38787;SDS011;24536;45.488;12.238;2023-03-31T04:21:37;19.83;;;12.93;;
38787;SDS011;24536;45.488;12.238;2023-03-31T04:24:09;22.75;;;13.32;;
38787;SDS011;24536;45.488;12.238;2023-03-31T04:26:40;21.55;;;12.75;;
38787;SDS011;24536;45.488;12.238;2023-03-31T04:29:09;33.85;;;15.85;;
38787;SDS011;24536;45.488;12.238;2023-03-31T04:31:40;21.38;;;12.57;;
38787;SDS011;24536;45.488;12.238;2023-03-31T04:34:10;22.73;;;11.48;;
38787;SDS011;24536;45.488;12.238;2023-03-31T04:36:43;20.15;;;11.80;;
38787;SDS011;24536;45.488;12.238;2023-03-31T04:39:17;25.13;;;13.77;;
38787;SDS011;24536;45.488;12.238;2023-03-31T04:41:55;20.55;;;11.77;;
38787;SDS011;24536;45.488;12.238;2023-03-31T04:44:22;23.40;;;12.25;;
38787;SDS011;24536;45.488;12.238;2023-03-31T04:46:47;18.15;;;11.65;;
38787;SDS011;24536;45.488;12.238;2023-03-31T04:49:13;17.27;;;10.70;;
38787;SDS011;24536;45.488;12.238;2023-03-31T04:51:39;21.70;;;11.90;;
38787;SDS011;24536;45.488;12.238;2023-03-31T04:54:06;21.30;;;12.85;;
38787;SDS011;24536;45.488;12.238;2023-03-31T04:56:32;27.38;;;12.55;;
38787;SDS011;24536;45.488;12.238;2023-03-31T04:58:58;15.90;;;11.88;;
38787;SDS011;24536;45.488;12.238;2023-03-31T05:01:23;20.35;;;12.68;;
38787;SDS011;24536;45.488;12.238;2023-03-31T05:03:49;15.40;;;11.60;;
38787;SDS011;24536;45.488;12.238;2023-03-31T05:06:15;14.52;;;11.15;;
38787;SDS011;24536;45.488;12.238;2023-03-31T05:08:41;14.73;;;11.07;;
38787;SDS011;24536;45.488;12.238;2023-03-31T05:11:07;18.92;;;11.38;;
38787;SDS011;24536;45.488;12.238;2023-03-31T05:13:33;20.13;;;12.20;;
38787;SDS011;24536;45.488;12.238;2023-03-31T05:16:04;18.10;;;12.82;;
38787;SDS011;24536;45.488;12.238;2023-03-31T05:18:35;16.20;;;11.95;;
38787;SDS011;24536;45.488;12.238;2023-03-31T05:21:17;23.42;;;12.23;;
38787;SDS011;24536;45.488;12.238;2023-03-31T05:23:45;20.13;;;11.88;;
38787;SDS011;24536;45.488;12.238;2023-03-31T05:26:11;19.83;;;12.30;;
38787;SDS011;24536;45.488;12.238;2023-03-31T05:28:37;14.82;;;11.13;;
38787;SDS011;24536;45.488;12.238;2023-03-31T05:31:04;18.73;;;12.13;;
38787;SDS011;24536;45.488;12.238;2023-03-31T05:33:31;14.60;;;11.88;;
38787;SDS011;24536;45.488;12.238;2023-03-31T05:35:57;18.00;;;12.20;;
38787;SDS011;24536;45.488;12.238;2023-03-31T05:38:26;16.42;;;12.00;;
38787;SDS011;24536;45.488;12.238;2023-03-31T05:40:55;19.20;;;12.57;;
38787;SDS011;24536;45.488;12.238;2023-03-31T05:43:21;17.23;;;11.90;;
38787;SDS011;24536;45.488;12.238;2023-03-31T05:45:47;21.15;;;12.45;;
38787;SDS011;24536;45.488;12.238;2023-03-31T05:48:12;20.80;;;14.38;;
38787;SDS011;24536;45.488;12.238;2023-03-31T05:50:38;17.92;;;12.10;;
38787;SDS011;24536;45.488;12.238;2023-03-31T05:53:04;22.00;;;14.35;;
38787;SDS011;24536;45.488;12.238;2023-03-31T05:55:29;18.40;;;13.13;;
38787;SDS011;24536;45.488;12.238;2023-03-31T05:57:55;16.00;;;10.90;;
38787;SDS011;24536;45.488;12.238;2023-03-31T06:00:21;22.92;;;12.80;;
38787;SDS011;24536;45.488;12.238;2023-03-31T06:02:47;19.27;;;12.35;;
38787;SDS011;24536;45.488;12.238;2023-03-31T06:05:12;19.63;;;12.10;;
38787;SDS011;24536;45.488;12.238;2023-03-31T06:07:38;16.10;;;10.15;;
38787;SDS011;24536;45.488;12.238;2023-03-31T06:10:04;13.90;;;11.15;;
38787;SDS011;24536;45.488;12.238;2023-03-31T06:12:32;14.85;;;10.73;;
38787;SDS011;24536;45.488;12.238;2023-03-31T06:14:57;13.57;;;10.30;;
38787;SDS011;24536;45.488;12.238;2023-03-31T06:17:23;16.45;;;11.45;;
38787;SDS011;24536;45.488;12.238;2023-03-31T06:19:51;19.13;;;11.07;;
38787;SDS011;24536;45.488;12.238;2023-03-31T06:22:17;14.27;;;10.95;;
38787;SDS011;24536;45.488;12.238;2023-03-31T06:24:43;13.25;;;10.90;;
38787;SDS011;24536;45.488;12.238;2023-03-31T06:27:10;14.32;;;10.20;;
38787;SDS011;24536;45.488;12.238;2023-03-31T06:29:36;12.57;;;10.07;;
38787;SDS011;24536;45.488;12.238;2023-03-31T06:32:01;17.00;;;10.35;;
38787;SDS011;24536;45.488;12.238;2023-03-31T06:34:28;15.77;;;10.57;;
38787;SDS011;24536;45.488;12.238;2023-03-31T06:36:54;17.02;;;9.95;;
38787;SDS011;24536;45.488;12.238;2023-03-31T06:39:20;14.85;;;10.20;;
38787;SDS011;24536;45.488;12.238;2023-03-31T06:41:46;15.05;;;9.98;;
38787;SDS011;24536;45.488;12.238;2023-03-31T06:44:11;14.75;;;10.30;;
38787;SDS011;24536;45.488;12.238;2023-03-31T06:46:40;15.55;;;11.05;;
38787;SDS011;24536;45.488;12.238;2023-03-31T06:49:07;13.90;;;10.00;;
38787;SDS011;24536;45.488;12.238;2023-03-31T06:51:33;15.27;;;11.20;;
38787;SDS011;24536;45.488;12.238;2023-03-31T06:53:58;16.17;;;10.13;;
38787;SDS011;24536;45.488;12.238;2023-03-31T06:56:24;18.63;;;10.10;;
38787;SDS011;24536;45.488;12.238;2023-03-31T06:58:51;12.77;;;9.27;;
38787;SDS011;24536;45.488;12.238;2023-03-31T07:01:17;15.73;;;10.55;;
38787;SDS011;24536;45.488;12.238;2023-03-31T07:03:42;18.55;;;9.60;;
38787;SDS011;24536;45.488;12.238;2023-03-31T07:06:08;15.95;;;9.98;;
38787;SDS011;24536;45.488;12.238;2023-03-31T07:08:33;14.10;;;10.88;;
38787;SDS011;24536;45.488;12.238;2023-03-31T07:11:00;13.63;;;10.10;;
38787;SDS011;24536;45.488;12.238;2023-03-31T07:13:27;15.00;;;11.25;;
38787;SDS011;24536;45.488;12.238;2023-03-31T07:15:53;18.02;;;10.50;;
38787;SDS011;24536;45.488;12.238;2023-03-31T07:18:19;15.45;;;10.02;;
38787;SDS011;24536;45.488;12.238;2023-03-31T07:20:49;11.98;;;8.98;;
38787;SDS011;24536;45.488;12.238;2023-03-31T07:23:16;18.60;;;11.20;;
38787;SDS011;24536;45.488;12.238;2023-03-31T07:25:42;13.07;;;9.18;;
38787;SDS011;24536;45.488;12.238;2023-03-31T07:28:08;13.65;;;10.23;;
38787;SDS011;24536;45.488;12.238;2023-03-31T07:30:33;13.68;;;9.52;;
38787;SDS011;24536;45.488;12.238;2023-03-31T07:33:00;13.05;;;9.77;;
38787;SDS011;24536;45.488;12.238;2023-03-31T07:35:26;14.13;;;9.65;;
38787;SDS011;24536;45.488;12.238;2023-03-31T07:37:52;15.88;;;10.48;;
38787;SDS011;24536;45.488;12.238;2023-03-31T07:40:22;15.80;;;10.15;;
38787;SDS011;24536;45.488;12.238;2023-03-31T07:42:50;15.57;;;10.68;;
38787;SDS011;24536;45.488;12.238;2023-03-31T07:45:17;15.57;;;10.55;;
38787;SDS011;24536;45.488;12.238;2023-03-31T07:47:48;15.23;;;9.80;;
38787;SDS011;24536;45.488;12.238;2023-03-31T07:50:18;14.93;;;9.85;;
38787;SDS011;24536;45.488;12.238;2023-03-31T07:52:47;15.05;;;10.23;;
38787;SDS011;24536;45.488;12.238;2023-03-31T07:55:14;16.55;;;11.05;;
38787;SDS011;24536;45.488;12.238;2023-03-31T07:57:41;19.08;;;11.57;;
38787;SDS011;24536;45.488;12.238;2023-03-31T08:00:10;15.60;;;11.30;;
38787;SDS011;24536;45.488;12.238;2023-03-31T08:02:39;16.42;;;11.02;;
38787;SDS011;24536;45.488;12.238;2023-03-31T08:05:07;19.13;;;11.95;;
38787;SDS011;24536;45.488;12.238;2023-03-31T08:07:34;19.77;;;12.43;;
38787;SDS011;24536;45.488;12.238;2023-03-31T08:10:04;21.55;;;13.60;;
38787;SDS011;24536;45.488;12.238;2023-03-31T08:12:35;21.77;;;15.05;;
38787;SDS011;24536;45.488;12.238;2023-03-31T08:15:04;22.58;;;15.95;;
38787;SDS011;24536;45.488;12.238;2023-03-31T08:17:30;19.30;;;13.97;;
38787;SDS011;24536;45.488;12.238;2023-03-31T08:19:56;19.63;;;13.93;;
38787;SDS011;24536;45.488;12.238;2023-03-31T08:22:22;21.88;;;13.32;;
38787;SDS011;24536;45.488;12.238;2023-03-31T08:24:47;20.85;;;14.40;;
38787;SDS011;24536;45.488;12.238;2023-03-31T08:27:14;18.60;;;12.65;;
38787;SDS011;24536;45.488;12.238;2023-03-31T08:29:39;20.50;;;13.25;;
38787;SDS011;24536;45.488;12.238;2023-03-31T08:32:06;20.38;;;14.32;;
38787;SDS011;24536;45.488;12.238;2023-03-31T08:34:31;20.08;;;15.20;;
38787;SDS011;24536;45.488;12.238;2023-03-31T08:36:57;20.60;;;14.07;;
38787;SDS011;24536;45.488;12.238;2023-03-31T08:39:23;24.40;;;14.85;;
38787;SDS011;24536;45.488;12.238;2023-03-31T08:44:20;18.50;;;14.52;;
38787;SDS011;24536;45.488;12.238;2023-03-31T08:46:59;20.20;;;14.40;;
38787;SDS011;24536;45.488;12.238;2023-03-31T08:51:56;21.58;;;14.55;;
38787;SDS011;24536;45.488;12.238;2023-03-31T08:56:51;20.58;;;14.30;;
38787;SDS011;24536;45.488;12.238;2023-03-31T08:59:30;21.15;;;16.35;;
38787;SDS011;24536;45.488;12.238;2023-03-31T09:12:36;22.88;;;17.55;;
38787;SDS011;24536;45.488;12.238;2023-03-31T09:17:43;27.02;;;18.40;;
38787;SDS011;24536;45.488;12.238;2023-03-31T09:20:52;26.90;;;17.63;;
38787;SDS011;24536;45.488;12.238;2023-03-31T09:23:06;28.92;;;17.63;;
38787;SDS011;24536;45.488;12.238;2023-03-31T09:25:37;28.98;;;18.88;;
38787;SDS011;24536;45.488;12.238;2023-03-31T09:28:07;24.70;;;18.85;;
38787;SDS011;24536;45.488;12.238;2023-03-31T09:30:36;27.17;;;18.85;;
38787;SDS011;24536;45.488;12.238;2023-03-31T09:33:11;31.05;;;19.75;;
38787;SDS011;24536;45.488;12.238;2023-03-31T09:35:41;29.00;;;19.42;;
38787;SDS011;24536;45.488;12.238;2023-03-31T09:38:10;35.28;;;20.35;;
38787;SDS011;24536;45.488;12.238;2023-03-31T09:43:04;36.58;;;21.25;;
38787;SDS011;24536;45.488;12.238;2023-03-31T09:45:43;29.17;;;18.90;;
38787;SDS011;24536;45.488;12.238;2023-03-31T09:48:10;27.90;;;19.20;;
38787;SDS011;24536;45.488;12.238;2023-03-31T09:50:51;27.70;;;18.35;;
38787;SDS011;24536;45.488;12.238;2023-03-31T09:53:33;29.60;;;19.08;;
38787;SDS011;24536;45.488;12.238;2023-03-31T09:56:04;37.75;;;20.13;;
38787;SDS011;24536;45.488;12.238;2023-03-31T09:58:42;29.55;;;18.25;;
38787;SDS011;24536;45.488;12.238;2023-03-31T10:01:10;28.10;;;19.70;;
38787;SDS011;24536;45.488;12.238;2023-03-31T10:03:46;31.73;;;18.98;;
38787;SDS011;24536;45.488;12.238;2023-03-31T10:06:14;34.03;;;19.50;;
38787;SDS011;24536;45.488;12.238;2023-03-31T10:08:42;30.17;;;19.50;;
38787;SDS011;24536;45.488;12.238;2023-03-31T10:11:12;23.38;;;18.40;;
38787;SDS011;24536;45.488;12.238;2023-03-31T10:13:48;28.00;;;18.25;;
38787;SDS011;24536;45.488;12.238;2023-03-31T10:18:47;25.02;;;17.60;;
38787;SDS011;24536;45.488;12.238;2023-03-31T10:21:24;27.88;;;19.33;;
38787;SDS011;24536;45.488;12.238;2023-03-31T10:23:51;33.15;;;19.88;;
38787;SDS011;24536;45.488;12.238;2023-03-31T10:26:21;29.20;;;19.83;;
38787;SDS011;24536;45.488;12.238;2023-03-31T10:28:50;30.17;;;20.63;;
38787;SDS011;24536;45.488;12.238;2023-03-31T10:31:17;26.48;;;20.63;;
38787;SDS011;24536;45.488;12.238;2023-03-31T10:33:45;30.27;;;21.40;;
38787;SDS011;24536;45.488;12.238;2023-03-31T10:36:22;30.30;;;20.48;;
38787;SDS011;24536;45.488;12.238;2023-03-31T10:38:52;27.30;;;20.73;;
38787;SDS011;24536;45.488;12.238;2023-03-31T10:41:19;25.67;;;20.45;;
38787;SDS011;24536;45.488;12.238;2023-03-31T10:43:49;27.63;;;20.38;;
38787;SDS011;24536;45.488;12.238;2023-03-31T10:46:16;25.50;;;18.58;;
38787;SDS011;24536;45.488;12.238;2023-03-31T10:48:42;26.70;;;18.13;;
38787;SDS011;24536;45.488;12.238;2023-03-31T11:15:44;23.60;;;16.25;;
38787;SDS011;24536;45.488;12.238;2023-03-31T11:21:00;26.05;;;17.15;;
38787;SDS011;24536;45.488;12.238;2023-03-31T11:23:42;25.95;;;17.73;;
38787;SDS011;24536;45.488;12.238;2023-03-31T11:37:29;22.25;;;16.15;;
38787;SDS011;24536;45.488;12.238;2023-03-31T11:39:44;21.70;;;16.63;;
38787;SDS011;24536;45.488;12.238;2023-03-31T11:42:37;20.98;;;15.43;;
38787;SDS011;24536;45.488;12.238;2023-03-31T11:45:17;18.48;;;14.25;;
38787;SDS011;24536;45.488;12.238;2023-03-31T11:47:49;19.00;;;12.13;;
38787;SDS011;24536;45.488;12.238;2023-03-31T11:50:19;17.90;;;12.40;;
38787;SDS011;24536;45.488;12.238;2023-03-31T11:55:19;18.90;;;13.02;;
38787;SDS011;24536;45.488;12.238;2023-03-31T12:00:19;24.60;;;14.52;;
38787;SDS011;24536;45.488;12.238;2023-03-31T12:02:58;18.88;;;14.18;;
38787;SDS011;24536;45.488;12.238;2023-03-31T12:05:34;24.05;;;15.65;;
38787;SDS011;24536;45.488;12.238;2023-03-31T12:08:06;20.08;;;15.05;;
38787;SDS011;24536;45.488;12.238;2023-03-31T12:10:48;23.85;;;15.88;;
38787;SDS011;24536;45.488;12.238;2023-03-31T12:16:10;24.27;;;16.88;;
38787;SDS011;24536;45.488;12.238;2023-03-31T12:18:57;20.98;;;15.70;;
38787;SDS011;24536;45.488;12.238;2023-03-31T12:21:41;18.90;;;13.90;;
38787;SDS011;24536;45.488;12.238;2023-03-31T12:24:12;22.65;;;15.50;;
38787;SDS011;24536;45.488;12.238;2023-03-31T12:32:03;21.92;;;16.10;;
38787;SDS011;24536;45.488;12.238;2023-03-31T12:34:32;23.83;;;15.95;;
38787;SDS011;24536;45.488;12.238;2023-03-31T12:37:17;24.35;;;16.88;;
38787;SDS011;24536;45.488;12.238;2023-03-31T12:40:02;21.67;;;16.85;;
38787;SDS011;24536;45.488;12.238;2023-03-31T12:42:45;24.65;;;16.38;;
38787;SDS011;24536;45.488;12.238;2023-03-31T12:45:30;22.67;;;16.77;;
38787;SDS011;24536;45.488;12.238;2023-03-31T12:59:36;24.13;;;14.77;;
38787;SDS011;24536;45.488;12.238;2023-03-31T13:04:36;22.48;;;16.05;;
38787;SDS011;24536;45.488;12.238;2023-03-31T13:07:03;19.73;;;15.07;;
38787;SDS011;24536;45.488;12.238;2023-03-31T13:09:40;20.30;;;14.65;;
38787;SDS011;24536;45.488;12.238;2023-03-31T13:12:08;22.05;;;13.85;;
38787;SDS011;24536;45.488;12.238;2023-03-31T13:14:43;17.42;;;13.65;;
38787;SDS011;24536;45.488;12.238;2023-03-31T13:17:21;20.13;;;14.20;;
38787;SDS011;24536;45.488;12.238;2023-03-31T13:19:53;15.95;;;13.23;;
38787;SDS011;24536;45.488;12.238;2023-03-31T13:27:56;19.48;;;12.52;;
38787;SDS011;24536;45.488;12.238;2023-03-31T13:33:03;16.75;;;11.70;;
38787;SDS011;24536;45.488;12.238;2023-03-31T13:35:29;16.77;;;11.73;;
38787;SDS011;24536;45.488;12.238;2023-03-31T14:07:21;11.25;;;5.47;;
38787;SDS011;24536;45.488;12.238;2023-03-31T14:10:20;8.18;;;5.07;;
38787;SDS011;24536;45.488;12.238;2023-03-31T14:13:06;9.10;;;4.57;;
38787;SDS011;24536;45.488;12.238;2023-03-31T14:15:47;10.48;;;4.78;;
38787;SDS011;24536;45.488;12.238;2023-03-31T14:18:27;7.15;;;3.22;;
38787;SDS011;24536;45.488;12.238;2023-03-31T14:26:18;6.65;;;3.00;;
38787;SDS011;24536;45.488;12.238;2023-03-31T14:35:18;11.15;;;2.42;;
38787;SDS011;24536;45.488;12.238;2023-03-31T14:37:39;9.60;;;2.72;;
38787;SDS011;24536;45.488;12.238;2023-03-31T14:40:05;6.78;;;2.72;;
38787;SDS011;24536;45.488;12.238;2023-03-31T14:42:37;6.10;;;2.10;;
38787;SDS011;24536;45.488;12.238;2023-03-31T14:45:37;8.90;;;1.88;;
38787;SDS011;24536;45.488;12.238;2023-03-31T14:48:02;13.18;;;2.78;;
38787;SDS011;24536;45.488;12.238;2023-03-31T14:50:35;5.65;;;1.67;;
38787;SDS011;24536;45.488;12.238;2023-03-31T14:53:01;7.75;;;1.73;;
38787;SDS011;24536;45.488;12.238;2023-03-31T14:55:29;5.05;;;1.65;;
38787;SDS011;24536;45.488;12.238;2023-03-31T14:57:58;2.83;;;1.17;;
38787;SDS011;24536;45.488;12.238;2023-03-31T15:00:26;6.03;;;1.60;;
38787;SDS011;24536;45.488;12.238;2023-03-31T15:02:54;6.00;;;1.90;;
38787;SDS011;24536;45.488;12.238;2023-03-31T15:05:25;5.78;;;1.80;;
38787;SDS011;24536;45.488;12.238;2023-03-31T15:07:58;7.30;;;1.80;;
38787;SDS011;24536;45.488;12.238;2023-03-31T15:10:28;5.70;;;1.83;;
38787;SDS011;24536;45.488;12.238;2023-03-31T15:13:07;5.90;;;1.85;;
38787;SDS011;24536;45.488;12.238;2023-03-31T15:15:35;8.30;;;1.65;;
38787;SDS011;24536;45.488;12.238;2023-03-31T15:18:01;5.32;;;1.52;;
38787;SDS011;24536;45.488;12.238;2023-03-31T15:20:34;6.68;;;1.85;;
38787;SDS011;24536;45.488;12.238;2023-03-31T15:23:17;7.05;;;1.60;;
38787;SDS011;24536;45.488;12.238;2023-03-31T15:25:58;7.80;;;1.92;;
38787;SDS011;24536;45.488;12.238;2023-03-31T15:28:29;6.55;;;1.88;;
38787;SDS011;24536;45.488;12.238;2023-03-31T15:31:01;5.95;;;2.00;;
38787;SDS011;24536;45.488;12.238;2023-03-31T15:33:31;8.30;;;2.08;;
38787;SDS011;24536;45.488;12.238;2023-03-31T15:36:00;7.82;;;1.92;;
38787;SDS011;24536;45.488;12.238;2023-03-31T15:38:29;10.52;;;2.40;;
38787;SDS011;24536;45.488;12.238;2023-03-31T15:40:56;7.57;;;1.75;;
38787;SDS011;24536;45.488;12.238;2023-03-31T15:43:27;6.05;;;1.55;;
38787;SDS011;24536;45.488;12.238;2023-03-31T15:45:58;6.78;;;2.10;;
38787;SDS011;24536;45.488;12.238;2023-03-31T15:51:00;7.25;;;2.47;;
38787;SDS011;24536;45.488;12.238;2023-03-31T15:53:36;4.68;;;2.22;;
38787;SDS011;24536;45.488;12.238;2023-03-31T15:56:09;4.90;;;1.80;;
38787;SDS011;24536;45.488;12.238;2023-03-31T15:58:58;9.02;;;1.95;;
38787;SDS011;24536;45.488;12.238;2023-03-31T16:01:27;8.27;;;2.10;;
38787;SDS011;24536;45.488;12.238;2023-03-31T16:04:06;7.60;;;2.70;;
38787;SDS011;24536;45.488;12.238;2023-03-31T16:06:44;10.80;;;2.45;;
38787;SDS011;24536;45.488;12.238;2023-03-31T16:09:16;7.22;;;2.08;;
38787;SDS011;24536;45.488;12.238;2023-03-31T16:11:53;7.95;;;2.47;;
38787;SDS011;24536;45.488;12.238;2023-03-31T16:17:00;9.10;;;2.83;;
38787;SDS011;24536;45.488;12.238;2023-03-31T16:19:41;6.95;;;2.80;;
38787;SDS011;24536;45.488;12.238;2023-03-31T16:22:15;5.32;;;2.30;;
38787;SDS011;24536;45.488;12.238;2023-03-31T16:24:46;9.88;;;2.25;;
38787;SDS011;24536;45.488;12.238;2023-03-31T16:27:13;8.65;;;2.15;;
38787;SDS011;24536;45.488;12.238;2023-03-31T16:29:39;9.15;;;2.47;;
38787;SDS011;24536;45.488;12.238;2023-03-31T16:32:15;7.65;;;2.15;;
38787;SDS011;24536;45.488;12.238;2023-03-31T16:37:17;8.45;;;2.40;;
38787;SDS011;24536;45.488;12.238;2023-03-31T16:39:43;6.93;;;2.60;;
38787;SDS011;24536;45.488;12.238;2023-03-31T16:42:09;8.13;;;2.30;;
38787;SDS011;24536;45.488;12.238;2023-03-31T16:44:34;4.85;;;2.67;;
38787;SDS011;24536;45.488;12.238;2023-03-31T16:47:00;5.28;;;2.30;;
38787;SDS011;24536;45.488;12.238;2023-03-31T16:49:26;9.30;;;2.65;;
38787;SDS011;24536;45.488;12.238;2023-03-31T16:51:51;6.82;;;2.55;;
38787;SDS011;24536;45.488;12.238;2023-03-31T16:54:17;6.60;;;2.45;;
38787;SDS011;24536;45.488;12.238;2023-03-31T16:56:43;6.90;;;2.40;;
38787;SDS011;24536;45.488;12.238;2023-03-31T16:59:09;6.15;;;2.28;;
38787;SDS011;24536;45.488;12.238;2023-03-31T17:01:35;9.35;;;3.05;;
38787;SDS011;24536;45.488;12.238;2023-03-31T17:04:00;8.57;;;2.85;;
38787;SDS011;24536;45.488;12.238;2023-03-31T17:06:26;8.20;;;2.40;;
38787;SDS011;24536;45.488;12.238;2023-03-31T17:08:52;6.45;;;2.90;;
38787;SDS011;24536;45.488;12.238;2023-03-31T17:11:18;9.50;;;3.28;;
38787;SDS011;24536;45.488;12.238;2023-03-31T17:13:43;7.57;;;2.42;;
38787;SDS011;24536;45.488;12.238;2023-03-31T17:16:10;11.30;;;3.00;;
38787;SDS011;24536;45.488;12.238;2023-03-31T17:18:36;7.38;;;2.80;;
38787;SDS011;24536;45.488;12.238;2023-03-31T17:21:09;7.90;;;2.70;;
38787;SDS011;24536;45.488;12.238;2023-03-31T17:23:37;6.68;;;3.17;;
38787;SDS011;24536;45.488;12.238;2023-03-31T17:26:03;10.88;;;3.17;;
38787;SDS011;24536;45.488;12.238;2023-03-31T17:28:30;9.63;;;3.58;;
38787;SDS011;24536;45.488;12.238;2023-03-31T17:30:57;9.43;;;3.35;;
38787;SDS011;24536;45.488;12.238;2023-03-31T17:33:23;8.82;;;2.97;;
38787;SDS011;24536;45.488;12.238;2023-03-31T17:35:49;10.63;;;3.38;;
38787;SDS011;24536;45.488;12.238;2023-03-31T17:40:47;10.32;;;3.45;;
38787;SDS011;24536;45.488;12.238;2023-03-31T17:43:13;11.70;;;4.55;;
38787;SDS011;24536;45.488;12.238;2023-03-31T17:45:38;9.85;;;3.28;;
38787;SDS011;24536;45.488;12.238;2023-03-31T17:48:05;10.15;;;3.38;;
38787;SDS011;24536;45.488;12.238;2023-03-31T17:50:31;14.35;;;3.38;;
38787;SDS011;24536;45.488;12.238;2023-03-31T17:52:57;9.75;;;3.45;;
38787;SDS011;24536;45.488;12.238;2023-03-31T17:55:23;12.20;;;4.00;;
38787;SDS011;24536;45.488;12.238;2023-03-31T17:57:49;11.60;;;3.85;;